Pinheiros, Brazil
Current Conditions -  °F | °C
As of 2:00 AM on Saturday 25 Oct 2014 (Local Time) from SBVT Reporting Station
Broken Clouds Broken Clouds  
Wind Chill: 70°   Ceiling: 4000
Heat Index: 70°   Visibility: 6mi
Dew Point: 61°   Wind: 3mph
Humidity: 73%   Direction: 340°NNW
Pressure: 29.94"   Gusts: NA
Location:  18.37°S, 40.21°W
Report Text: SBVT 250400Z 34003KT 9999 BKN040 21/16 Q1014
Loading
Personal Weather Stations






























Interactive Weather Map
Tropical Storm Tracking
New forecast layout! Learn more

10-Day Weather Forecast

Advertisements
Track Severe Weather on mobile